Daisinmaru No.11 — JK5352 — position and weather

sailwx.info

Track history (hours):
 
Tides and Currents Weather Stations Pressure Air Temp Water Temp Dewpoint Dewpoint Depression Visibility Wind Speed Wind Dir Waves Ship Positions

Daisinmaru No.11

Last reported at 2016-Apr-28 10:26 UTC. Time now 2016-May-04 21:16 UTC.
Position N 35°27' E 139°60'.

Length 52 m; draft 5.2 m.

Type: Cargo ship. MMSI: 431000667.

Date/timePositionNaut miles runAvg speedWind from/ knotsBaromVisibWave heightAir tempDewpointWater temp
2016-Apr-28 10:26N 35°27' E 139°60'0 0.0
2016-Apr-28 09:33N 35°27' E 139°60'4 3.8
2016-Apr-28 08:34N 35°29' E 139°56'9 8.6
2016-Apr-28 07:34N 35°32' E 139°46'0 0.2
2016-Apr-28 06:34N 35°32' E 139°46'0 0.0
2016-Apr-28 05:33N 35°32' E 139°46'0 0.0
2016-Apr-27 02:09N 35°32' E 139°46'0 0.0
2016-Apr-27 01:34N 35°32' E 139°46'0 0.0
2016-Apr-27 00:33N 35°32' E 139°46'0 0.0
2016-Apr-26 23:33N 35°32' E 139°46'1 1.2
2016-Apr-26 22:33N 35°31' E 139°46'1010.1
2016-Apr-26 21:33N 35°29' E 139°58'1 0.1
2016-Apr-26 07:14N 35°28' E 139°60'3 5.0
2016-Apr-26 06:33N 35°31' E 140°02'4 3.9
2016-Apr-26 05:33N 35°32' E 140°06'0 0.0
2016-Apr-26 04:33N 35°32' E 140°06'8 7.7
2016-Apr-26 03:33N 35°32' E 139°56'9 9.4
2016-Apr-26 02:33N 35°30' E 139°45'2 2.3
2016-Apr-26 01:33N 35°29' E 139°43'0 0.0
2016-Apr-26 00:33N 35°29' E 139°43'0 0.0
2016-Apr-25 23:33N 35°29' E 139°43'4 4.0
2016-Apr-25 22:33N 35°30' E 139°47'10 9.9
2016-Apr-25 21:33N 35°28' E 139°59'  
2016-Apr-20 09:33N 35°27' E 139°60'0 0.0
2016-Apr-20 08:33N 35°27' E 139°60'5 4.6
2016-Apr-20 07:33N 35°29' E 139°55'8 7.8
2016-Apr-20 06:33N 35°32' E 139°46'0 0.0
2016-Apr-20 05:33N 35°32' E 139°46'0 0.0
2016-Apr-20 04:33N 35°32' E 139°46'0 0.0
2016-Apr-20 03:33N 35°32' E 139°46'0 0.0
2016-Apr-20 02:33N 35°32' E 139°46'0 0.0
2016-Apr-20 01:33N 35°32' E 139°46'0 0.0
2016-Apr-20 00:33N 35°32' E 139°46'0 0.0
2016-Apr-19 23:33N 35°32' E 139°46'0 0.2
2016-Apr-19 22:33N 35°32' E 139°46'1010.2
2016-Apr-19 21:33N 35°29' E 139°58'  
Track history (hours):
 
Tides and Currents Weather Stations Pressure Air Temp Water Temp Dewpoint Dewpoint Depression Visibility Wind Speed Wind Dir Waves Ship Positions

Daisinmaru No.11

Last reported at 2016-Apr-28 10:26 UTC. Time now 2016-May-04 21:16 UTC.
Position N 35°27' E 139°60'.

Length 52 m; draft 5.2 m.

Type: Cargo ship. MMSI: 431000667.

Date/timePositionNaut miles runAvg speedWind from/ knotsBaromVisibWave heightAir tempDewpointWater temp
2016-Apr-28 10:26N 35°27' E 139°60'0 0.0
2016-Apr-28 09:33N 35°27' E 139°60'4 3.8
2016-Apr-28 08:34N 35°29' E 139°56'9 8.6
2016-Apr-28 07:34N 35°32' E 139°46'0 0.2
2016-Apr-28 06:34N 35°32' E 139°46'0 0.0
2016-Apr-28 05:33N 35°32' E 139°46'0 0.0
2016-Apr-27 02:09N 35°32' E 139°46'0 0.0
2016-Apr-27 01:34N 35°32' E 139°46'0 0.0
2016-Apr-27 00:33N 35°32' E 139°46'0 0.0
2016-Apr-26 23:33N 35°32' E 139°46'1 1.2
2016-Apr-26 22:33N 35°31' E 139°46'1010.1
2016-Apr-26 21:33N 35°29' E 139°58'1 0.1
2016-Apr-26 07:14N 35°28' E 139°60'3 5.0
2016-Apr-26 06:33N 35°31' E 140°02'4 3.9
2016-Apr-26 05:33N 35°32' E 140°06'0 0.0
2016-Apr-26 04:33N 35°32' E 140°06'8 7.7
2016-Apr-26 03:33N 35°32' E 139°56'9 9.4
2016-Apr-26 02:33N 35°30' E 139°45'2 2.3
2016-Apr-26 01:33N 35°29' E 139°43'0 0.0
2016-Apr-26 00:33N 35°29' E 139°43'0 0.0
2016-Apr-25 23:33N 35°29' E 139°43'4 4.0
2016-Apr-25 22:33N 35°30' E 139°47'10 9.9
2016-Apr-25 21:33N 35°28' E 139°59'  
2016-Apr-20 09:33N 35°27' E 139°60'0 0.0
2016-Apr-20 08:33N 35°27' E 139°60'5 4.6
2016-Apr-20 07:33N 35°29' E 139°55'8 7.8
2016-Apr-20 06:33N 35°32' E 139°46'0 0.0
2016-Apr-20 05:33N 35°32' E 139°46'0 0.0
2016-Apr-20 04:33N 35°32' E 139°46'0 0.0
2016-Apr-20 03:33N 35°32' E 139°46'0 0.0
2016-Apr-20 02:33N 35°32' E 139°46'0 0.0
2016-Apr-20 01:33N 35°32' E 139°46'0 0.0
2016-Apr-20 00:33N 35°32' E 139°46'0 0.0
2016-Apr-19 23:33N 35°32' E 139°46'0 0.2
2016-Apr-19 22:33N 35°32' E 139°46'1010.2
2016-Apr-19 21:33N 35°29' E 139°58'  

Dump ship's entire track history